Time;durP1;ratioP1;P1;durP2;ratioP2;P2;SDS_P1;SDS_P2;PMS_P1;PMS_P2;Temp;Humidity;BMP_temperature;BMP_pressure;BME280_temperature;BME280_humidity;BME280_pressure;Samples;Min_cycle;Max_cycle;Signal;HPM_P1;HPM_P2
2021/07/04 00:01:14;;;;;;;0.85;0.68;;;18.60;89.80;;;;;;5052863;28;20041;-78
2021/07/04 00:03:39;;;;;;;1.90;0.77;;;18.60;89.80;;;;;;5052490;28;20060;-78
2021/07/04 00:06:05;;;;;;;0.75;0.75;;;18.60;90.20;;;;;;5052762;28;20049;-79
2021/07/04 00:08:30;;;;;;;0.93;0.70;;;18.60;89.90;;;;;;5054293;28;20028;-78
2021/07/04 00:11:04;;;;;;;0.68;0.50;;;18.60;90.00;;;;;;5038962;28;20032;-79
2021/07/04 00:13:30;;;;;;;0.75;0.68;;;18.50;90.00;;;;;;5056700;28;20055;-78
2021/07/04 00:15:56;;;;;;;0.80;0.80;;;18.50;90.00;;;;;;5056715;28;20518;-78
2021/07/04 00:18:24;;;;;;;0.77;0.75;;;18.50;90.00;;;;;;5056132;28;20023;-79
2021/07/04 00:20:51;;;;;;;0.60;0.60;;;18.60;90.00;;;;;;5056509;28;20482;-79
2021/07/04 00:23:18;;;;;;;0.80;0.80;;;18.60;90.00;;;;;;5056491;28;20023;-78
2021/07/04 00:25:44;;;;;;;0.77;0.70;;;18.60;90.00;;;;;;5056569;28;20025;-78
2021/07/04 00:28:11;;;;;;;1.00;0.80;;;18.60;90.00;;;;;;5056280;28;20037;-78
2021/07/04 00:30:37;;;;;;;1.15;0.88;;;18.60;90.00;;;;;;5056428;28;20021;-79
2021/07/04 00:33:04;;;;;;;0.90;0.90;;;18.60;90.00;;;;;;5055815;28;20388;-79
2021/07/04 00:35:30;;;;;;;0.80;0.80;;;18.60;90.00;;;;;;5056419;28;20013;-79
2021/07/04 00:37:55;;;;;;;1.50;0.70;;;18.60;90.00;;;;;;5056379;28;20531;-80
2021/07/04 00:40:22;;;;;;;0.60;0.60;;;18.60;90.10;;;;;;5056224;28;20531;-77
2021/07/04 00:42:47;;;;;;;0.80;0.77;;;18.60;90.10;;;;;;5056225;28;20028;-81
2021/07/04 00:45:19;;;;;;;1.00;0.93;;;18.50;90.10;;;;;;5056023;28;20078;-79
2021/07/04 00:47:46;;;;;;;1.27;0.80;;;18.50;90.20;;;;;;5055538;28;20064;-80
2021/07/04 00:50:12;;;;;;;0.50;0.50;;;18.50;90.30;;;;;;5056165;28;20075;-80
2021/07/04 00:52:39;;;;;;;0.82;0.80;;;18.40;90.30;;;;;;5055972;28;20482;-78
2021/07/04 00:55:06;;;;;;;0.50;0.50;;;18.40;90.40;;;;;;5055827;28;20013;-80
2021/07/04 00:57:33;;;;;;;0.80;0.77;;;18.30;90.40;;;;;;5055946;28;20363;-79
2021/07/04 00:59:59;;;;;;;0.60;0.60;;;18.30;90.40;;;;;;5055774;28;20049;-79
2021/07/04 01:02:25;;;;;;;0.70;0.50;;;18.30;90.50;;;;;;5055218;28;20490;-79
2021/07/04 01:04:51;;;;;;;0.60;0.60;;;18.30;90.50;;;;;;5037944;28;20374;-78
2021/07/04 01:07:17;;;;;;;0.50;0.50;;;18.30;90.50;;;;;;5055543;28;20032;-77
2021/07/04 01:09:43;;;;;;;0.40;0.40;;;18.30;90.50;;;;;;5037895;28;20017;-79
2021/07/04 01:12:09;;;;;;;0.85;0.75;;;18.40;90.50;;;;;;5055768;28;20033;-78
2021/07/04 01:14:35;;;;;;;0.30;0.30;;;18.30;90.50;;;;;;5055551;28;20044;-78
2021/07/04 01:17:01;;;;;;;0.40;0.40;;;18.30;90.50;;;;;;5055008;28;20397;-78
2021/07/04 01:19:26;;;;;;;0.60;0.60;;;18.30;90.50;;;;;;5054886;28;20017;-79
2021/07/04 01:21:55;;;;;;;0.57;0.50;;;18.30;90.70;;;;;;5055374;28;20422;-79
2021/07/04 01:24:22;;;;;;;0.40;0.40;;;18.40;90.50;;;;;;5055410;28;20104;-78
2021/07/04 01:26:48;;;;;;;0.60;0.60;;;18.30;90.50;;;;;;5055296;28;20059;-78
2021/07/04 01:29:14;;;;;;;0.40;0.40;;;18.30;90.60;;;;;;5037355;28;20420;-79
2021/07/04 01:31:39;;;;;;;0.55;0.55;;;18.30;90.60;;;;;;5054758;28;20062;-77
2021/07/04 01:34:05;;;;;;;0.57;0.57;;;18.30;90.60;;;;;;5055369;28;20359;-79
2021/07/04 01:36:31;;;;;;;0.82;0.80;;;18.40;90.60;;;;;;5055318;28;20123;-78
2021/07/04 01:38:57;;;;;;;0.73;0.55;;;18.40;90.60;;;;;;5055135;28;20017;-78
2021/07/04 01:41:23;;;;;;;0.68;0.68;;;18.40;90.60;;;;;;5054904;28;20021;-79
2021/07/04 01:43:49;;;;;;;0.65;0.60;;;18.40;90.50;;;;;;5055062;28;20429;-77
2021/07/04 01:46:14;;;;;;;0.55;0.52;;;18.40;90.50;;;;;;5054475;28;20477;-78
2021/07/04 01:48:40;;;;;;;0.70;0.70;;;18.40;90.60;;;;;;5054975;28;20109;-77
2021/07/04 01:51:06;;;;;;;1.05;1.00;;;18.40;90.80;;;;;;5054867;28;20095;-77
2021/07/04 01:53:31;;;;;;;0.73;0.70;;;18.30;90.60;;;;;;5054769;28;20381;-79
2021/07/04 01:55:57;;;;;;;0.60;0.60;;;18.30;90.70;;;;;;5054822;28;20021;-79
2021/07/04 01:58:23;;;;;;;0.90;0.80;;;18.30;90.70;;;;;;5054744;28;20103;-78
2021/07/04 02:00:49;;;;;;;0.80;0.50;;;18.30;90.70;;;;;;5054095;28;20071;-78
2021/07/04 02:03:15;;;;;;;0.82;0.77;;;18.30;90.70;;;;;;5054623;28;20485;-78
2021/07/04 02:05:40;;;;;;;0.63;0.52;;;18.40;90.70;;;;;;5054718;28;20104;-77
2021/07/04 02:08:06;;;;;;;0.63;0.63;;;18.40;90.70;;;;;;5054291;28;20044;-78
2021/07/04 02:10:35;;;;;;;0.77;0.77;;;18.40;90.70;;;;;;5054603;28;20017;-78
2021/07/04 02:13:02;;;;;;;0.53;0.50;;;18.40;90.70;;;;;;5054535;28;20065;-77
2021/07/04 02:15:30;;;;;;;0.50;0.50;;;18.40;90.70;;;;;;5053911;28;20264;-77
2021/07/04 02:17:56;;;;;;;0.52;0.52;;;18.40;90.60;;;;;;5054463;28;20112;-78
2021/07/04 02:20:33;;;;;;;0.60;0.60;;;18.40;90.60;;;;;;5054335;28;20021;-78
2021/07/04 02:23:21;;;;;;;0.47;0.47;;;18.50;90.60;;;;;;5054383;28;20087;-78
2021/07/04 02:25:48;;;;;;;0.50;0.50;;;18.50;90.60;;;;;;5054445;28;20025;-78
2021/07/04 02:28:17;;;;;;;0.40;0.40;;;18.50;90.70;;;;;;5053865;28;20358;-78
2021/07/04 02:30:44;;;;;;;0.50;0.50;;;18.50;90.70;;;;;;5054112;28;20029;-78
2021/07/04 02:33:12;;;;;;;0.60;0.60;;;18.50;90.70;;;;;;5054116;28;20033;-77
2021/07/04 02:35:49;;;;;;;0.65;0.65;;;18.50;90.70;;;;;;5054208;28;20408;-78
2021/07/04 02:38:15;;;;;;;0.50;0.40;;;18.50;90.70;;;;;;5054066;28;20028;-77
2021/07/04 02:40:44;;;;;;;0.40;0.40;;;18.50;90.70;;;;;;5053609;28;20504;-77
2021/07/04 02:43:16;;;;;;;0.50;0.50;;;18.50;90.70;;;;;;5053482;28;20393;-78
2021/07/04 02:45:44;;;;;;;0.40;0.40;;;18.50;90.70;;;;;;5053913;28;20120;-77
2021/07/04 02:48:10;;;;;;;0.85;0.85;;;18.60;90.70;;;;;;5053860;28;20041;-78
2021/07/04 02:50:38;;;;;;;0.65;0.65;;;18.50;90.70;;;;;;5053869;28;20067;-78
2021/07/04 02:53:04;;;;;;;0.60;0.60;;;18.60;90.80;;;;;;5053685;28;20025;-78
2021/07/04 02:55:29;;;;;;;0.40;0.40;;;18.50;90.80;;;;;;5053702;28;20048;-78
2021/07/04 02:57:55;;;;;;;0.45;0.45;;;18.60;90.70;;;;;;5053252;28;20021;-78
2021/07/04 03:00:24;;;;;;;0.60;0.60;;;18.50;90.70;;;;;;5053574;28;20112;-77
2021/07/04 03:02:50;;;;;;;0.47;0.47;;;18.50;90.70;;;;;;5053530;28;20074;-77
2021/07/04 03:05:16;;;;;;;0.80;0.80;;;18.50;90.70;;;;;;5053603;28;20100;-78
2021/07/04 03:07:42;;;;;;;0.50;0.50;;;18.60;90.80;;;;;;5053356;28;20036;-79
2021/07/04 03:10:11;;;;;;;0.52;0.47;;;18.50;90.80;;;;;;5053539;28;20029;-78
2021/07/04 03:12:37;;;;;;;0.45;0.45;;;18.50;90.80;;;;;;5053269;28;20155;-78
2021/07/04 03:15:05;;;;;;;0.68;0.50;;;18.50;90.80;;;;;;5053365;28;20021;-77
2021/07/04 03:17:31;;;;;;;0.65;0.52;;;18.60;90.80;;;;;;5035411;28;20112;-77
2021/07/04 03:19:56;;;;;;;0.70;0.70;;;18.50;90.80;;;;;;5053294;28;20052;-78
2021/07/04 03:22:23;;;;;;;0.85;0.65;;;18.50;90.80;;;;;;5053454;28;20052;-78
2021/07/04 03:24:48;;;;;;;0.40;0.40;;;18.50;90.90;;;;;;5053163;28;20485;-79
2021/07/04 03:27:14;;;;;;;0.47;0.47;;;18.60;90.90;;;;;;5034673;28;20035;-78
2021/07/04 03:29:39;;;;;;;0.75;0.70;;;18.50;90.80;;;;;;5053304;28;20017;-77
2021/07/04 03:32:06;;;;;;;0.73;0.55;;;18.60;90.90;;;;;;5053248;28;20381;-77
2021/07/04 03:34:31;;;;;;;0.63;0.60;;;18.50;90.80;;;;;;5053309;28;20017;-77
2021/07/04 03:36:57;;;;;;;0.30;0.30;;;18.50;90.80;;;;;;5053086;28;20033;-79
2021/07/04 03:39:23;;;;;;;0.63;0.60;;;18.50;90.80;;;;;;5053149;28;20025;-78
2021/07/04 03:41:48;;;;;;;0.75;0.70;;;18.60;90.90;;;;;;5052696;28;20029;-78
2021/07/04 03:44:14;;;;;;;0.45;0.45;;;18.50;90.90;;;;;;5058581;28;20021;-79
2021/07/04 03:46:39;;;;;;;0.80;0.80;;;18.50;90.90;;;;;;5059639;28;20370;-79
2021/07/04 03:49:05;;;;;;;0.85;0.82;;;18.50;90.90;;;;;;5059641;28;20105;-79
2021/07/04 03:51:31;;;;;;;0.63;0.63;;;18.50;90.90;;;;;;5041824;28;20158;-78
2021/07/04 03:53:56;;;;;;;0.60;0.60;;;18.50;90.90;;;;;;5059643;28;20498;-79
2021/07/04 03:56:22;;;;;;;0.95;0.95;;;18.50;90.90;;;;;;5041199;28;20025;-79
2021/07/04 03:58:48;;;;;;;0.98;0.80;;;18.50;90.90;;;;;;5041806;28;20021;-78
2021/07/04 04:01:18;;;;;;;0.70;0.70;;;18.50;91.00;;;;;;5059287;28;20493;-79
2021/07/04 04:03:45;;;;;;;0.45;0.45;;;18.50;91.00;;;;;;5059713;28;20079;-78
2021/07/04 04:06:10;;;;;;;0.70;0.70;;;18.50;91.00;;;;;;5059434;28;20021;-79
2021/07/04 04:08:36;;;;;;;0.80;0.73;;;18.50;90.90;;;;;;5041511;28;20106;-78
2021/07/04 04:11:04;;;;;;;0.52;0.52;;;18.60;90.90;;;;;;5059032;28;20017;-78
2021/07/04 04:13:29;;;;;;;0.73;0.73;;;18.60;90.90;;;;;;5059544;28;20035;-78
2021/07/04 04:15:55;;;;;;;0.73;0.73;;;18.60;90.90;;;;;;5059579;28;20096;-79
2021/07/04 04:18:20;;;;;;;0.60;0.60;;;18.60;90.90;;;;;;5059480;28;20029;-79
2021/07/04 04:20:46;;;;;;;1.20;1.10;;;18.60;90.90;;;;;;5059462;28;20025;-77
2021/07/04 04:23:11;;;;;;;0.73;0.73;;;18.70;90.90;;;;;;5041394;28;20029;-77
2021/07/04 04:25:37;;;;;;;1.13;1.00;;;18.70;90.90;;;;;;5058815;28;20025;-78
2021/07/04 04:28:04;;;;;;;0.80;0.80;;;18.70;90.90;;;;;;5059281;28;20054;-78
2021/07/04 04:30:32;;;;;;;0.98;0.88;;;18.80;90.90;;;;;;5059354;28;20104;-79
2021/07/04 04:32:58;;;;;;;0.90;0.90;;;18.80;90.90;;;;;;5059463;28;20025;-78
2021/07/04 04:35:23;;;;;;;0.60;0.60;;;18.80;90.90;;;;;;5059357;28;20014;-79
2021/07/04 04:37:50;;;;;;;0.80;0.80;;;18.80;90.90;;;;;;5059238;28;20021;-79
2021/07/04 04:40:15;;;;;;;0.75;0.75;;;18.80;90.90;;;;;;5058881;28;20225;-79
2021/07/04 04:42:44;;;;;;;1.20;0.93;;;18.80;90.90;;;;;;5059159;28;20505;-79
2021/07/04 04:45:10;;;;;;;0.75;0.75;;;18.90;90.90;;;;;;5059154;28;20025;-79
2021/07/04 04:47:36;;;;;;;1.05;0.98;;;18.80;90.90;;;;;;5059178;28;20119;-77
2021/07/04 04:50:03;;;;;;;0.60;0.60;;;18.90;90.90;;;;;;5059270;28;20025;-78
2021/07/04 04:52:29;;;;;;;0.70;0.70;;;18.90;90.90;;;;;;5059026;28;20033;-79
2021/07/04 04:54:54;;;;;;;0.80;0.80;;;18.90;90.80;;;;;;5055652;28;20544;-77
2021/07/04 04:57:19;;;;;;;1.05;1.02;;;19.00;90.80;;;;;;5055947;28;20104;-78
2021/07/04 04:59:45;;;;;;;1.20;1.10;;;19.00;90.80;;;;;;5055815;28;20067;-78
2021/07/04 05:02:11;;;;;;;1.00;0.90;;;19.00;90.80;;;;;;5056081;28;20036;-78
2021/07/04 05:04:36;;;;;;;1.45;1.00;;;19.10;90.80;;;;;;5055806;28;20385;-78
2021/07/04 05:07:02;;;;;;;1.30;1.20;;;19.10;90.80;;;;;;5037689;28;20037;-78
2021/07/04 05:09:27;;;;;;;1.25;1.00;;;19.10;90.80;;;;;;5055390;28;20509;-77
2021/07/04 05:11:53;;;;;;;2.20;1.42;;;19.10;90.80;;;;;;5055698;28;20056;-79
2021/07/04 05:14:19;;;;;;;1.85;1.65;;;19.20;91.10;;;;;;5037779;28;20509;-79
2021/07/04 05:16:45;;;;;;;1.70;1.30;;;19.20;90.80;;;;;;5055516;28;20029;-78
2021/07/04 05:19:12;;;;;;;1.30;1.20;;;19.20;90.80;;;;;;5055512;28;20021;-78
2021/07/04 05:21:39;;;;;;;1.33;1.10;;;19.10;90.90;;;;;;5055503;28;20028;-78
2021/07/04 05:24:06;;;;;;;1.38;1.20;;;19.10;90.90;;;;;;5055059;28;20024;-78
2021/07/04 05:26:32;;;;;;;1.75;1.55;;;19.10;91.00;;;;;;5055204;28;20462;-78
2021/07/04 05:28:58;;;;;;;1.92;1.25;;;19.10;91.00;;;;;;5055406;28;20021;-78
2021/07/04 05:31:24;;;;;;;1.20;1.10;;;19.10;91.00;;;;;;5055425;28;20021;-78
2021/07/04 05:33:51;;;;;;;2.03;1.30;;;19.10;91.00;;;;;;5054996;28;20020;-78
2021/07/04 05:36:16;;;;;;;1.80;1.40;;;19.10;90.90;;;;;;5055189;28;20105;-78
2021/07/04 05:38:43;;;;;;;1.58;1.30;;;19.10;90.90;;;;;;5054711;28;20092;-78
2021/07/04 05:41:10;;;;;;;3.83;2.53;;;19.20;90.90;;;;;;5055190;28;20029;-79
2021/07/04 05:43:37;;;;;;;1.75;1.50;;;19.20;90.90;;;;;;5055002;28;20053;-79
2021/07/04 05:46:03;;;;;;;2.10;1.50;;;19.20;90.90;;;;;;5055095;28;20017;-79
2021/07/04 05:48:29;;;;;;;2.55;1.92;;;19.30;90.90;;;;;;5054952;28;20036;-79
2021/07/04 05:50:55;;;;;;;2.72;2.03;;;19.30;90.90;;;;;;5054491;28;20100;-79
2021/07/04 05:53:21;;;;;;;2.85;2.30;;;19.30;90.90;;;;;;5054880;28;20146;-77
2021/07/04 05:55:47;;;;;;;2.47;1.83;;;19.20;90.90;;;;;;5055097;28;20490;-77
2021/07/04 05:58:12;;;;;;;2.25;1.88;;;19.10;91.00;;;;;;5054760;28;20013;-80
2021/07/04 06:00:39;;;;;;;2.50;1.75;;;19.10;91.10;;;;;;5054624;28;20110;-78
2021/07/04 06:03:05;;;;;;;2.20;1.70;;;19.10;91.10;;;;;;5036766;28;20021;-78
2021/07/04 06:05:30;;;;;;;2.67;1.92;;;19.20;91.10;;;;;;5053726;28;20017;-77
2021/07/04 06:07:56;;;;;;;3.65;2.13;;;19.30;91.00;;;;;;5054458;28;20393;-78
2021/07/04 06:10:21;;;;;;;2.47;2.03;;;19.30;91.00;;;;;;5054721;28;20024;-79
2021/07/04 06:12:47;;;;;;;2.97;2.10;;;19.30;90.90;;;;;;5054538;28;20028;-78
2021/07/04 06:15:13;;;;;;;3.25;2.10;;;19.40;90.90;;;;;;5054427;28;20105;-79
2021/07/04 06:17:39;;;;;;;2.17;1.60;;;19.40;90.90;;;;;;5054428;28;20031;-77
2021/07/04 06:20:07;;;;;;;2.38;1.65;;;19.60;90.90;;;;;;5053822;28;20021;-78
2021/07/04 06:22:33;;;;;;;2.83;2.28;;;19.70;90.80;;;;;;5054244;28;20049;-79
2021/07/04 06:24:59;;;;;;;3.38;2.60;;;19.70;90.70;;;;;;5054403;28;20100;-78
2021/07/04 06:27:24;;;;;;;3.38;2.30;;;19.70;90.70;;;;;;5054282;28;20117;-78
2021/07/04 06:29:50;;;;;;;5.18;2.90;;;19.60;90.80;;;;;;5053904;28;20120;-78
2021/07/04 06:32:15;;;;;;;4.82;2.85;;;19.50;90.80;;;;;;5054148;28;20082;-80
2021/07/04 06:34:41;;;;;;;3.55;2.33;;;19.40;90.90;;;;;;5053671;28;20013;-78
2021/07/04 06:37:06;;;;;;;2.53;2.25;;;19.40;90.90;;;;;;5036303;28;20397;-79
2021/07/04 06:39:32;;;;;;;3.72;2.33;;;19.50;90.90;;;;;;5054045;28;20017;-78
2021/07/04 06:41:58;;;;;;;2.75;1.92;;;19.60;90.80;;;;;;5054016;28;20056;-79
2021/07/04 06:44:23;;;;;;;3.90;2.70;;;19.60;90.70;;;;;;5053683;28;20036;-73
2021/07/04 06:46:49;;;;;;;3.90;2.85;;;19.60;90.70;;;;;;5035919;28;20021;-78
2021/07/04 06:49:14;;;;;;;3.63;2.35;;;19.60;90.80;;;;;;5053351;28;20025;-78
2021/07/04 06:51:40;;;;;;;3.22;2.05;;;19.60;90.80;;;;;;5053784;28;20070;-77
2021/07/04 06:54:05;;;;;;;4.10;2.42;;;19.60;90.90;;;;;;5053941;28;20025;-78
2021/07/04 06:56:31;;;;;;;4.40;2.83;;;19.60;90.80;;;;;;5053736;28;20033;-78
2021/07/04 06:58:56;;;;;;;4.10;2.75;;;19.50;90.80;;;;;;5053545;28;20021;-78
2021/07/04 07:01:22;;;;;;;4.80;2.80;;;19.50;91.00;;;;;;5053613;28;20130;-76
2021/07/04 07:03:47;;;;;;;5.28;2.97;;;19.50;91.00;;;;;;5053046;28;20017;-78
2021/07/04 07:06:13;;;;;;;5.50;3.17;;;19.50;90.90;;;;;;5053506;28;20029;-77
2021/07/04 07:08:38;;;;;;;4.38;2.50;;;19.50;90.90;;;;;;5053579;28;20029;-76
2021/07/04 07:11:04;;;;;;;5.13;2.92;;;19.50;90.90;;;;;;5053324;28;20025;-78
2021/07/04 07:13:29;;;;;;;4.07;2.80;;;19.60;90.90;;;;;;5053639;28;20032;-78
2021/07/04 07:15:55;;;;;;;5.28;3.67;;;19.60;90.80;;;;;;5053493;28;20014;-79
2021/07/04 07:18:20;;;;;;;3.95;2.47;;;19.70;90.70;;;;;;5052255;28;20091;-79
2021/07/04 07:20:46;;;;;;;5.13;3.38;;;19.80;90.70;;;;;;5053422;28;20017;-79
2021/07/04 07:23:14;;;;;;;4.43;2.97;;;19.80;90.60;;;;;;5053244;28;20353;-78
2021/07/04 07:25:40;;;;;;;3.03;2.42;;;19.90;90.60;;;;;;5053533;28;20029;-78
2021/07/04 07:28:06;;;;;;;3.80;2.53;;;19.90;90.50;;;;;;5053175;28;20118;-78
2021/07/04 07:30:31;;;;;;;3.10;2.42;;;19.90;90.50;;;;;;5053426;28;20473;-79
2021/07/04 07:32:57;;;;;;;3.53;2.58;;;19.90;90.40;;;;;;5052741;28;20036;-77
2021/07/04 07:35:23;;;;;;;4.07;2.80;;;19.90;90.50;;;;;;5053113;28;20021;-79
2021/07/04 07:37:50;;;;;;;7.00;4.60;;;19.90;90.50;;;;;;5053288;28;20031;-78
2021/07/04 07:40:17;;;;;;;4.65;3.45;;;19.90;90.40;;;;;;5042785;28;20017;-79
2021/07/04 07:42:42;;;;;;;6.45;3.75;;;19.90;90.50;;;;;;5052337;28;20061;-77
2021/07/04 07:45:08;;;;;;;6.25;4.47;;;20.00;90.50;;;;;;5052141;28;20033;-78
2021/07/04 07:47:36;;;;;;;6.55;4.22;;;20.00;90.40;;;;;;5052069;28;20045;-79
2021/07/04 07:50:03;;;;;;;6.05;4.00;;;20.00;90.50;;;;;;5052886;28;20040;-79
2021/07/04 07:52:29;;;;;;;6.22;3.55;;;20.00;90.50;;;;;;5052698;28;20028;-81
2021/07/04 07:54:55;;;;;;;4.43;2.92;;;20.00;90.40;;;;;;5052824;28;20017;-80
2021/07/04 07:57:21;;;;;;;5.97;3.92;;;20.10;90.40;;;;;;5052765;28;20029;-81
2021/07/04 07:59:46;;;;;;;4.30;3.20;;;20.10;90.30;;;;;;5052489;28;20069;-78
2021/07/04 08:02:12;;;;;;;4.97;3.28;;;20.10;90.30;;;;;;5045483;28;20377;-77
2021/07/04 08:04:38;;;;;;;4.30;2.88;;;20.20;90.30;;;;;;5051970;28;20454;-82
2021/07/04 08:07:04;;;;;;;5.30;3.58;;;20.20;90.30;;;;;;5053039;28;20017;-88
2021/07/04 08:09:30;;;;;;;5.38;4.03;;;20.40;90.20;;;;;;5053447;28;20104;-86
2021/07/04 08:11:55;;;;;;;4.32;2.88;;;20.40;90.20;;;;;;5053594;28;20051;-86
2021/07/04 08:14:21;;;;;;;4.60;3.28;;;20.50;90.10;;;;;;5053406;28;20036;-84
2021/07/04 08:16:48;;;;;;;5.85;3.47;;;20.60;90.10;;;;;;5032152;28;20029;-86
2021/07/04 08:19:13;;;;;;;4.68;3.22;;;20.70;90.00;;;;;;5053230;28;20021;-86
2021/07/04 08:21:40;;;;;;;4.72;2.85;;;20.70;90.00;;;;;;5073545;28;20020;-85
2021/07/04 08:24:06;;;;;;;4.68;2.88;;;20.80;90.00;;;;;;5073558;28;20489;-86
2021/07/04 08:26:31;;;;;;;4.18;2.80;;;20.80;90.00;;;;;;5073168;28;20106;-85
2021/07/04 08:28:57;;;;;;;4.05;2.38;;;20.90;89.80;;;;;;5061078;28;20021;-85
2021/07/04 08:31:24;;;;;;;3.92;2.30;;;20.90;89.80;;;;;;5068511;28;20021;-82
2021/07/04 08:33:50;;;;;;;4.85;2.83;;;20.90;89.90;;;;;;5065250;28;20032;-83
2021/07/04 08:36:15;;;;;;;4.15;2.55;;;21.00;89.70;;;;;;5050592;28;20025;-81
2021/07/04 08:38:41;;;;;;;5.38;3.13;;;21.10;89.50;;;;;;5047691;28;20381;-83
2021/07/04 08:41:07;;;;;;;4.55;2.95;;;21.10;89.50;;;;;;5055697;28;20039;-84
2021/07/04 08:43:35;;;;;;;4.90;3.30;;;21.00;89.70;;;;;;5038322;28;20025;-83
2021/07/04 08:46:02;;;;;;;4.38;2.55;;;21.00;89.70;;;;;;5052428;28;20514;-82
2021/07/04 08:48:28;;;;;;;3.42;2.60;;;20.90;90.00;;;;;;5048475;28;20037;-83
2021/07/04 08:50:54;;;;;;;5.38;2.63;;;20.90;90.00;;;;;;5055215;28;20204;-83
2021/07/04 08:53:20;;;;;;;4.68;2.92;;;21.00;89.70;;;;;;5045226;28;20026;-84
2021/07/04 08:55:46;;;;;;;3.72;2.63;;;21.10;89.60;;;;;;5045448;28;20028;-83
2021/07/04 08:58:19;;;;;;;4.20;2.75;;;21.20;89.50;;;;;;5074977;28;20066;-84
2021/07/04 09:00:44;;;;;;;5.78;3.03;;;21.20;89.30;;;;;;5074613;28;20101;-83
2021/07/04 09:03:25;;;;;;;3.78;2.40;;;21.30;89.30;;;;;;5048832;28;20025;-82
2021/07/04 09:05:51;;;;;;;4.47;2.70;;;21.50;89.00;;;;;;5055293;28;20052;-82
2021/07/04 09:08:20;;;;;;;3.40;2.55;;;21.60;88.80;;;;;;5037508;28;20065;-82
2021/07/04 09:11:25;;;;;;;;;;;21.70;88.80;;;;;;5055779;28;20487;-82
2021/07/04 09:13:51;;;;;;;3.17;2.35;;;21.80;88.80;;;;;;4974267;28;19906;-83
2021/07/04 09:16:23;;;;;;;4.53;2.40;;;21.90;88.30;;;;;;4974739;28;20043;-82
2021/07/04 09:19:08;;;;;;;3.65;2.72;;;21.80;88.30;;;;;;4974387;28;20031;-73
2021/07/04 09:21:34;;;;;;;4.07;2.70;;;21.70;88.50;;;;;;4974610;28;20113;-75
2021/07/04 09:23:59;;;;;;;3.40;2.53;;;21.70;89.00;;;;;;4989633;28;20113;-78
2021/07/04 09:26:42;;;;;;;3.53;2.50;;;21.70;89.00;;;;;;4993521;28;20046;-76
2021/07/04 09:29:10;;;;;;;5.25;3.13;;;21.90;88.90;;;;;;4993471;28;20102;-75
2021/07/04 09:31:36;;;;;;;4.00;2.78;;;21.90;88.70;;;;;;4993784;28;20491;-75
2021/07/04 09:34:07;;;;;;;3.58;2.65;;;21.90;88.70;;;;;;4993734;28;20030;-76
2021/07/04 09:36:33;;;;;;;3.92;3.00;;;22.00;88.60;;;;;;4993843;28;20030;-75
2021/07/04 09:38:59;;;;;;;4.57;3.08;;;22.20;88.50;;;;;;4994137;28;20038;-75
2021/07/04 09:41:24;;;;;;;4.22;2.78;;;22.20;88.10;;;;;;4992940;28;20092;-75
2021/07/04 09:43:50;;;;;;;2.72;2.20;;;22.40;88.00;;;;;;5001398;28;20030;-76
2021/07/04 09:46:17;;;;;;;4.57;2.90;;;22.70;87.80;;;;;;5035171;28;20034;-75
2021/07/04 09:48:47;;;;;;;3.80;2.92;;;22.90;87.10;;;;;;5034963;28;20123;-76
2021/07/04 09:51:27;;;;;;;3.10;2.65;;;23.10;87.00;;;;;;5035025;28;20026;-77
2021/07/04 09:53:57;;;;;;;3.20;2.40;;;23.30;86.80;;;;;;5017190;28;20029;-76
2021/07/04 09:56:25;;;;;;;;;;;23.50;86.80;;;;;;5035443;28;20041;-76
2021/07/04 09:58:53;;;;;;;3.70;2.60;;;23.60;86.90;;;;;;5034525;28;19905;-78
2021/07/04 10:01:45;;;;;;;2.53;1.90;;;23.60;86.70;;;;;;5034803;28;20140;-78
2021/07/04 10:04:31;;;;;;;3.58;2.35;;;23.50;86.70;;;;;;5034939;28;20030;-77
2021/07/04 10:06:59;;;;;;;2.58;2.00;;;23.50;87.20;;;;;;5034745;28;20128;-77
2021/07/04 10:09:26;;;;;;;3.20;2.08;;;23.60;87.10;;;;;;5034722;28;20025;-76
2021/07/04 10:11:52;;;;;;;2.88;1.92;;;23.90;86.90;;;;;;5034188;28;20489;-77
2021/07/04 10:14:19;;;;;;;3.05;2.42;;;24.00;86.60;;;;;;5034738;28;20029;-78
2021/07/04 10:16:46;;;;;;;2.55;2.00;;;24.20;86.40;;;;;;5034533;28;20449;-77
2021/07/04 10:19:38;;;;;;;3.03;2.10;;;24.20;86.20;;;;;;5034454;28;20029;-77
2021/07/04 10:22:05;;;;;;;3.83;2.45;;;24.30;86.30;;;;;;5030643;28;20057;-78
2021/07/04 10:24:31;;;;;;;3.13;2.47;;;24.40;86.10;;;;;;5034339;28;20081;-77
2021/07/04 10:26:59;;;;;;;3.35;2.60;;;24.50;85.70;;;;;;5033776;28;20125;-77
2021/07/04 10:29:30;;;;;;;2.92;2.17;;;24.50;85.80;;;;;;5016859;28;20386;-76
2021/07/04 10:32:10;;;;;;;2.83;2.17;;;24.50;85.70;;;;;;5034215;28;20017;-78
2021/07/04 10:34:47;;;;;;;2.78;2.38;;;24.20;86.00;;;;;;5034276;28;20025;-83
2021/07/04 10:37:15;;;;;;;3.83;2.55;;;24.10;87.10;;;;;;5034218;28;20022;-79
2021/07/04 10:39:41;;;;;;;4.57;2.55;;;24.10;86.70;;;;;;5034144;28;20493;-78
2021/07/04 10:42:09;;;;;;;3.30;2.45;;;24.20;86.60;;;;;;5015919;28;20026;-81
2021/07/04 10:44:36;;;;;;;3.65;2.53;;;24.30;86.30;;;;;;5033845;28;20049;-80
2021/07/04 10:47:24;;;;;;;2.78;2.38;;;24.20;86.80;;;;;;5033838;28;20383;-79
2021/07/04 10:49:53;;;;;;;3.65;2.30;;;24.30;86.20;;;;;;5033948;28;20071;-79
2021/07/04 10:52:43;;;;;;;4.35;2.60;;;24.40;85.90;;;;;;5033100;28;20029;-80
2021/07/04 10:55:27;;;;;;;2.60;1.98;;;24.40;86.00;;;;;;5033801;28;20028;-79
2021/07/04 10:57:59;;;;;;;2.70;2.10;;;24.30;86.40;;;;;;5033944;28;20040;-80
2021/07/04 11:00:26;;;;;;;3.45;2.65;;;24.30;86.50;;;;;;5033530;28;20506;-80
2021/07/04 11:02:59;;;;;;;2.83;2.13;;;24.30;86.20;;;;;;5033701;28;20057;-78
2021/07/04 11:05:31;;;;;;;3.47;2.28;;;24.40;86.00;;;;;;5015917;28;20046;-80
2021/07/04 11:07:56;;;;;;;3.35;2.38;;;24.30;85.90;;;;;;5033589;28;20034;-80
2021/07/04 11:10:25;;;;;;;3.05;2.40;;;24.30;85.80;;;;;;5033107;28;20032;-79
2021/07/04 11:12:53;;;;;;;2.97;2.30;;;24.20;85.50;;;;;;5033626;28;20102;-78
2021/07/04 11:15:19;;;;;;;2.17;1.80;;;24.20;85.80;;;;;;5015851;28;20133;-78
2021/07/04 11:17:56;;;;;;;2.33;1.83;;;24.20;85.70;;;;;;5033482;28;20022;-78
2021/07/04 11:20:23;;;;;;;2.70;1.83;;;24.20;85.70;;;;;;5033399;28;20182;-78
2021/07/04 11:23:05;;;;;;;2.55;1.80;;;24.30;85.60;;;;;;5033492;28;20029;-79
2021/07/04 11:25:48;;;;;;;2.85;2.50;;;24.30;85.30;;;;;;5033202;28;20021;-78
2021/07/04 11:28:17;;;;;;;2.22;1.70;;;24.30;85.20;;;;;;5033289;28;20482;-78
2021/07/04 11:30:42;;;;;;;2.30;1.93;;;24.30;85.00;;;;;;5033403;28;20025;-83
2021/07/04 11:33:29;;;;;;;2.15;1.73;;;24.30;85.10;;;;;;5033456;28;20280;-83
2021/07/04 11:36:03;;;;;;;2.13;1.60;;;24.20;85.00;;;;;;5033680;28;20018;-85
2021/07/04 11:38:32;;;;;;;2.08;1.73;;;24.20;85.10;;;;;;5033895;28;20021;-85
2021/07/04 11:40:58;;;;;;;2.53;1.65;;;24.20;85.80;;;;;;5033190;28;20025;-86
2021/07/04 11:43:26;;;;;;;1.88;1.67;;;24.30;84.80;;;;;;5015786;28;20488;-84
2021/07/04 11:46:03;;;;;;;1.52;1.42;;;24.40;84.60;;;;;;5034172;28;20082;-90
2021/07/04 11:48:53;;;;;;;2.08;1.75;;;24.60;84.00;;;;;;5033648;28;20061;-89
2021/07/04 11:51:22;;;;;;;2.15;1.75;;;24.70;83.70;;;;;;5033667;28;20033;-88
2021/07/04 11:53:50;;;;;;;2.65;1.85;;;24.80;83.60;;;;;;5033857;28;20445;-86
2021/07/04 11:56:16;;;;;;;2.35;1.70;;;24.90;83.50;;;;;;5036376;28;20108;-87
2021/07/04 11:58:42;;;;;;;1.98;1.75;;;24.90;83.40;;;;;;5037562;28;20060;-84
2021/07/04 12:01:16;;;;;;;2.47;1.80;;;25.00;83.40;;;;;;5033480;28;20513;-79
2021/07/04 12:03:42;;;;;;;2.85;2.05;;;25.10;83.20;;;;;;5033435;28;20030;-79
2021/07/04 12:06:08;;;;;;;2.92;2.28;;;25.10;83.10;;;;;;5037673;28;20028;-80
2021/07/04 12:08:58;;;;;;;2.53;1.80;;;25.30;83.30;;;;;;5037148;28;20033;-79
2021/07/04 12:11:43;;;;;;;1.98;1.63;;;25.80;82.60;;;;;;5036940;28;20080;-79
2021/07/04 12:14:29;;;;;;;2.20;1.90;;;26.00;81.90;;;;;;5018918;28;20033;-78
2021/07/04 12:16:58;;;;;;;2.97;2.67;;;25.90;82.00;;;;;;5019009;28;20018;-79
2021/07/04 12:19:33;;;;;;;1.88;1.77;;;25.70;82.10;;;;;;5036793;28;20014;-80
2021/07/04 12:22:01;;;;;;;1.95;1.73;;;25.50;82.80;;;;;;5036632;28;20123;-81
2021/07/04 12:24:39;;;;;;;2.83;2.28;;;25.70;83.00;;;;;;5036312;28;20532;-81
2021/07/04 12:27:06;;;;;;;3.00;1.93;;;26.00;82.30;;;;;;5036647;28;20033;-81
2021/07/04 12:29:31;;;;;;;2.22;1.63;;;26.10;82.30;;;;;;5018832;28;20634;-80
2021/07/04 12:32:04;;;;;;;1.58;1.48;;;26.30;82.00;;;;;;5036511;28;20025;-81
2021/07/04 12:34:32;;;;;;;1.95;1.60;;;26.30;81.90;;;;;;5018779;28;20017;-80
2021/07/04 12:36:59;;;;;;;1.67;1.50;;;26.30;82.10;;;;;;5035956;28;20040;-79
2021/07/04 12:39:31;;;;;;;2.08;1.77;;;26.30;82.10;;;;;;5036160;28;20619;-79
2021/07/04 12:41:58;;;;;;;2.10;1.90;;;26.40;82.00;;;;;;5036303;28;20022;-79
2021/07/04 12:44:23;;;;;;;1.40;1.30;;;26.40;82.00;;;;;;5036342;28;20025;-79
2021/07/04 12:46:49;;;;;;;1.65;1.40;;;26.20;82.10;;;;;;5036379;28;20156;-80
2021/07/04 12:49:14;;;;;;;1.50;1.40;;;26.10;82.30;;;;;;5036256;28;20429;-82
2021/07/04 12:51:44;;;;;;;1.60;1.38;;;26.10;82.50;;;;;;5035521;28;20026;-82